Time;durP1;ratioP1;P1;durP2;ratioP2;P2;SDS_P1;SDS_P2;PMS_P1;PMS_P2;Temp;Humidity;BMP_temperature;BMP_pressure;BME280_temperature;BME280_humidity;BME280_pressure;Samples;Min_cycle;Max_cycle;Signal;HPM_P1;HPM_P2
2022/03/26 00:00:25;;;;;;;55.47;34.63;;;7.90;83.60;;;;;;2612017;47;20422;-75
2022/03/26 00:02:53;;;;;;;57.43;33.13;;;;;;;;;;2611474;39;20842;-75
2022/03/26 00:05:19;;;;;;;57.53;36.13;;;7.70;85.90;;;;;;2610250;54;20403;-74
2022/03/26 00:07:46;;;;;;;59.23;33.90;;;7.80;90.00;;;;;;2613025;47;20408;-75
2022/03/26 00:10:12;;;;;;;54.93;34.80;;;7.90;85.10;;;;;;2611467;51;20552;-75
2022/03/26 00:12:41;;;;;;;62.53;34.57;;;7.80;84.20;;;;;;2612816;47;20421;-76
2022/03/26 00:15:08;;;;;;;62.90;33.07;;;7.70;88.60;;;;;;2612178;54;20867;-75
2022/03/26 00:17:34;;;;;;;53.17;32.77;;;7.70;89.10;;;;;;2611497;54;20496;-77
2022/03/26 00:20:02;;;;;;;58.50;33.93;;;7.80;92.50;;;;;;2611654;39;20773;-76
2022/03/26 00:22:27;;;;;;;51.07;32.50;;;7.60;89.50;;;;;;2613086;39;20820;-76
2022/03/26 00:24:53;;;;;;;60.43;32.63;;;7.70;87.60;;;;;;2609466;54;20428;-75
2022/03/26 00:27:19;;;;;;;50.40;32.30;;;7.60;91.70;;;;;;2610182;54;20294;-74
2022/03/26 00:29:45;;;;;;;57.80;32.20;;;7.50;86.60;;;;;;2611892;46;20196;-78
2022/03/26 00:32:11;;;;;;;54.67;30.90;;;7.30;99.00;;;;;;2611421;54;20473;-75
2022/03/26 00:34:38;;;;;;;56.30;36.27;;;7.60;85.80;;;;;;2611211;54;20400;-75
2022/03/26 00:37:04;;;;;;;52.50;31.60;;;7.50;86.70;;;;;;2612386;54;20456;-76
2022/03/26 00:39:31;;;;;;;47.80;29.20;;;7.50;88.20;;;;;;2611446;47;20421;-76
2022/03/26 00:41:58;;;;;;;49.10;30.60;;;7.50;88.70;;;;;;2611654;39;20479;-74
2022/03/26 00:44:24;;;;;;;48.70;30.57;;;7.50;88.60;;;;;;2613288;54;20419;-76
2022/03/26 00:46:50;;;;;;;59.27;34.43;;;7.40;90.30;;;;;;2611936;54;20408;-75
2022/03/26 00:49:18;;;;;;;53.80;31.53;;;7.30;90.80;;;;;;2611280;46;20393;-75
2022/03/26 00:51:45;;;;;;;57.67;34.57;;;7.30;91.10;;;;;;2611551;51;20987;-76
2022/03/26 00:54:12;;;;;;;52.63;31.00;;;7.10;96.30;;;;;;2610955;47;20404;-74
2022/03/26 00:56:39;;;;;;;58.53;31.03;;;7.20;91.50;;;;;;2610562;51;20409;-75
2022/03/26 00:59:07;;;;;;;53.93;31.33;;;7.30;96.30;;;;;;2611147;54;20389;-75
2022/03/26 01:01:34;;;;;;;54.03;32.50;;;7.20;97.50;;;;;;2611819;54;20419;-75
2022/03/26 01:04:00;;;;;;;55.57;32.70;;;7.00;92.30;;;;;;2611250;47;20962;-76
2022/03/26 01:06:27;;;;;;;55.93;33.87;;;6.80;95.60;;;;;;2612284;54;20445;-75
2022/03/26 01:08:54;;;;;;;59.17;33.13;;;6.80;96.00;;;;;;2612327;54;20425;-75
2022/03/26 01:11:20;;;;;;;57.80;33.90;;;6.70;99.10;;;;;;2610651;46;20410;-75
2022/03/26 01:13:46;;;;;;;53.00;30.50;;;;;;;;;;2611266;39;20481;-75
2022/03/26 01:16:12;;;;;;;53.93;33.53;;;6.40;99.90;;;;;;2611873;39;20776;-74
2022/03/26 01:18:40;;;;;;;60.90;32.27;;;6.60;99.90;;;;;;2611774;54;20890;-75
2022/03/26 01:21:06;;;;;;;55.43;32.67;;;6.60;99.90;;;;;;2611450;39;20802;-75
2022/03/26 01:23:32;;;;;;;53.07;31.23;;;6.60;99.90;;;;;;2611408;54;20426;-75
2022/03/26 01:25:58;;;;;;;59.83;32.13;;;6.60;99.90;;;;;;2612630;54;20444;-75
2022/03/26 01:28:25;;;;;;;63.53;32.50;;;6.50;99.90;;;;;;2612709;54;20430;-75
2022/03/26 01:30:52;;;;;;;56.40;34.73;;;6.50;99.90;;;;;;2610142;54;20421;-78
2022/03/26 01:33:19;;;;;;;55.17;33.47;;;6.50;99.90;;;;;;2611704;54;20413;-75
2022/03/26 01:35:45;;;;;;;59.17;36.50;;;6.50;99.90;;;;;;2612067;54;20409;-75
2022/03/26 01:38:11;;;;;;;54.07;31.53;;;6.40;99.90;;;;;;2612750;54;20152;-75
2022/03/26 01:40:37;;;;;;;62.83;32.70;;;6.50;99.90;;;;;;2612104;47;20959;-74
2022/03/26 01:43:04;;;;;;;63.70;37.03;;;6.40;99.90;;;;;;2613204;54;20418;-74
2022/03/26 01:45:30;;;;;;;67.50;32.67;;;6.30;99.90;;;;;;2612790;39;20758;-75
2022/03/26 01:47:57;;;;;;;49.13;34.40;;;6.40;99.90;;;;;;2613093;54;20574;-77
2022/03/26 01:50:25;;;;;;;63.93;34.77;;;6.40;99.90;;;;;;2611629;54;20483;-75
2022/03/26 01:52:51;;;;;;;55.87;34.73;;;6.40;99.90;;;;;;2611842;54;21059;-75
2022/03/26 01:55:18;;;;;;;60.77;33.47;;;6.40;99.90;;;;;;2611542;54;20440;-75
2022/03/26 01:57:44;;;;;;;56.83;34.50;;;6.40;99.90;;;;;;2611646;54;20409;-76
2022/03/26 02:00:12;;;;;;;56.90;34.63;;;6.40;99.90;;;;;;2612762;54;21145;-75
2022/03/26 02:02:43;;;;;;;67.43;35.90;;;6.40;99.90;;;;;;2613141;54;20502;-80
2022/03/26 02:05:14;;;;;;;57.83;35.73;;;6.50;99.90;;;;;;2610607;54;20442;-77
2022/03/26 02:10:21;;;;;;;55.77;33.87;;;6.40;99.90;;;;;;2613249;39;21536;-75
2022/03/26 02:12:47;;;;;;;63.57;36.37;;;6.30;99.90;;;;;;2611081;54;20540;-75
2022/03/26 02:15:14;;;;;;;57.40;32.83;;;6.40;99.90;;;;;;2611881;54;20408;-76
2022/03/26 02:17:41;;;;;;;54.13;33.13;;;6.40;99.90;;;;;;2611579;54;20443;-75
2022/03/26 02:20:10;;;;;;;54.17;30.47;;;6.40;99.90;;;;;;2611793;54;20407;-77
2022/03/26 02:22:38;;;;;;;54.67;32.67;;;6.30;99.90;;;;;;2611536;54;20420;-75
2022/03/26 02:25:06;;;;;;;50.13;32.60;;;6.30;99.90;;;;;;2612132;47;20515;-75
2022/03/26 02:27:33;;;;;;;57.50;31.43;;;6.10;99.90;;;;;;2612467;39;20898;-75
2022/03/26 02:29:59;;;;;;;57.10;30.93;;;6.10;99.90;;;;;;2611385;47;20425;-75
2022/03/26 02:32:27;;;;;;;52.33;32.90;;;6.00;99.90;;;;;;2610989;54;20507;-78
2022/03/26 02:34:54;;;;;;;58.97;33.27;;;6.00;99.90;;;;;;2611832;54;20151;-77
2022/03/26 02:37:20;;;;;;;53.27;33.27;;;5.90;99.90;;;;;;2611872;54;20397;-76
2022/03/26 02:39:46;;;;;;;58.53;35.40;;;5.90;99.90;;;;;;2612268;54;21494;-74
2022/03/26 02:42:12;;;;;;;51.50;33.23;;;5.80;99.90;;;;;;2612837;47;20408;-75
2022/03/26 02:44:40;;;;;;;51.33;32.90;;;5.80;99.90;;;;;;2612019;54;20420;-77
2022/03/26 02:47:08;;;;;;;49.87;30.60;;;5.90;99.90;;;;;;2611320;54;20463;-75
2022/03/26 02:49:34;;;;;;;55.67;32.07;;;5.90;99.90;;;;;;2611106;54;20413;-76
2022/03/26 02:52:00;;;;;;;50.93;31.33;;;5.90;99.90;;;;;;2610999;47;20403;-75
2022/03/26 02:54:26;;;;;;;60.90;33.87;;;5.90;99.90;;;;;;2612199;47;20403;-75
2022/03/26 02:56:54;;;;;;;48.23;31.00;;;5.90;99.90;;;;;;2612274;54;20385;-77
2022/03/26 02:59:23;;;;;;;53.20;32.57;;;5.70;99.90;;;;;;2611121;54;20430;-77
2022/03/26 03:01:51;;;;;;;58.07;33.17;;;5.70;99.90;;;;;;2611697;47;20411;-74
2022/03/26 03:04:17;;;;;;;55.83;32.00;;;5.80;99.90;;;;;;2608846;39;20768;-75
2022/03/26 03:06:43;;;;;;;58.30;35.37;;;5.70;99.90;;;;;;2610902;54;20384;-74
2022/03/26 03:09:10;;;;;;;50.63;31.93;;;5.70;99.90;;;;;;2611412;54;20392;-76
2022/03/26 03:11:36;;;;;;;49.63;33.10;;;5.70;99.90;;;;;;2610387;47;20302;-75
2022/03/26 03:14:04;;;;;;;59.37;33.50;;;5.70;99.90;;;;;;2611232;54;20402;-75
2022/03/26 03:16:34;;;;;;;52.90;30.10;;;5.70;99.90;;;;;;2612006;54;20403;-76
2022/03/26 03:18:59;;;;;;;55.83;32.37;;;5.70;99.90;;;;;;2611069;54;20395;-76
2022/03/26 03:21:26;;;;;;;65.50;33.90;;;5.70;99.90;;;;;;2611721;47;20966;-76
2022/03/26 03:23:52;;;;;;;50.60;31.00;;;5.70;99.90;;;;;;2612134;39;20661;-76
2022/03/26 03:26:18;;;;;;;54.00;31.47;;;5.70;99.90;;;;;;2610387;47;20404;-77
2022/03/26 03:28:44;;;;;;;55.57;32.97;;;5.60;99.90;;;;;;2610143;54;20160;-76
2022/03/26 03:31:10;;;;;;;56.27;33.13;;;5.60;99.90;;;;;;2611363;47;20168;-77
2022/03/26 03:33:36;;;;;;;58.87;34.70;;;5.70;99.90;;;;;;2611209;54;20415;-77
2022/03/26 03:36:03;;;;;;;57.30;32.37;;;5.60;99.90;;;;;;2611503;47;20162;-75
2022/03/26 03:38:28;;;;;;;65.03;34.13;;;5.70;99.90;;;;;;2613154;54;20399;-75
2022/03/26 03:40:55;;;;;;;52.00;34.93;;;5.70;99.90;;;;;;2612399;39;20791;-75
2022/03/26 03:43:22;;;;;;;50.87;35.47;;;5.70;99.90;;;;;;2613012;54;20226;-77
2022/03/26 03:45:49;;;;;;;58.77;35.20;;;5.70;99.90;;;;;;2612403;54;20533;-75
2022/03/26 03:48:15;;;;;;;56.47;34.50;;;5.60;99.90;;;;;;2612675;54;20976;-76
2022/03/26 03:50:44;;;;;;;55.10;33.90;;;5.60;99.90;;;;;;2611114;54;20402;-76
2022/03/26 03:53:10;;;;;;;53.33;32.00;;;5.60;99.90;;;;;;2610666;54;20154;-76
2022/03/26 03:55:37;;;;;;;53.63;31.97;;;5.50;99.90;;;;;;2611719;39;20808;-75
2022/03/26 03:58:04;;;;;;;60.23;32.80;;;5.50;99.90;;;;;;2609637;47;20178;-75
2022/03/26 04:00:30;;;;;;;51.30;32.40;;;5.40;99.90;;;;;;2611300;47;20980;-74
2022/03/26 04:02:56;;;;;;;55.23;32.57;;;5.40;99.90;;;;;;2611821;47;20427;-75
2022/03/26 04:05:21;;;;;;;61.43;34.27;;;5.40;99.90;;;;;;2610529;47;20169;-78
2022/03/26 04:07:47;;;;;;;51.47;32.23;;;5.40;99.90;;;;;;2612459;46;20418;-77
2022/03/26 04:10:14;;;;;;;48.70;32.07;;;5.20;99.90;;;;;;2610666;54;20190;-76
2022/03/26 04:12:42;;;;;;;59.83;35.47;;;5.20;99.90;;;;;;2611872;54;20239;-75
2022/03/26 04:15:10;;;;;;;52.80;33.70;;;5.30;99.90;;;;;;2610651;47;20442;-75
2022/03/26 04:17:36;;;;;;;55.67;33.03;;;5.30;99.90;;;;;;2611181;54;21028;-76
2022/03/26 04:20:06;;;;;;;59.83;35.77;;;5.30;99.90;;;;;;2610391;54;20428;-75
2022/03/26 04:22:31;;;;;;;69.40;38.70;;;5.10;99.90;;;;;;2611298;39;20803;-75
2022/03/26 04:24:57;;;;;;;63.60;36.50;;;5.10;99.90;;;;;;2612659;50;20465;-74
2022/03/26 04:27:24;;;;;;;58.37;34.07;;;5.10;99.90;;;;;;2611141;47;20162;-76
2022/03/26 04:29:50;;;;;;;57.83;35.90;;;5.20;99.90;;;;;;2612534;39;20642;-76
2022/03/26 04:32:15;;;;;;;61.17;33.83;;;5.20;99.90;;;;;;2610663;47;20419;-76
2022/03/26 04:34:41;;;;;;;62.17;35.50;;;5.10;99.90;;;;;;2611848;39;20583;-75
2022/03/26 04:37:07;;;;;;;59.80;36.40;;;5.10;99.90;;;;;;2611079;54;20678;-75
2022/03/26 04:39:34;;;;;;;59.63;36.60;;;5.00;99.90;;;;;;2611331;54;20175;-75
2022/03/26 04:42:00;;;;;;;62.80;36.90;;;5.00;99.90;;;;;;2610009;47;20181;-77
2022/03/26 04:44:27;;;;;;;54.80;32.30;;;5.00;99.90;;;;;;2612074;47;20955;-75
2022/03/26 04:46:53;;;;;;;52.90;32.60;;;4.90;99.90;;;;;;2612490;54;20167;-77
2022/03/26 04:49:19;;;;;;;55.57;36.30;;;4.80;99.90;;;;;;2613119;54;20434;-75
2022/03/26 04:51:45;;;;;;;66.17;36.60;;;4.90;99.90;;;;;;2611078;54;20666;-75
2022/03/26 04:54:11;;;;;;;60.13;35.57;;;4.80;99.90;;;;;;2610292;54;20403;-75
2022/03/26 04:56:37;;;;;;;59.37;36.70;;;4.90;99.90;;;;;;2611054;54;20527;-74
2022/03/26 04:59:03;;;;;;;51.63;33.87;;;4.90;99.90;;;;;;2610673;39;20587;-75
2022/03/26 05:01:28;;;;;;;52.97;35.27;;;4.90;99.90;;;;;;2611878;47;20293;-75
2022/03/26 05:03:54;;;;;;;55.03;33.60;;;4.80;99.90;;;;;;2611157;54;20150;-77
2022/03/26 05:06:20;;;;;;;47.13;31.00;;;4.60;99.90;;;;;;2609992;47;20176;-76
2022/03/26 05:08:48;;;;;;;52.27;33.20;;;4.60;99.90;;;;;;2611029;47;20171;-75
2022/03/26 05:11:14;;;;;;;61.77;33.60;;;4.60;99.90;;;;;;2611253;54;20467;-75
2022/03/26 05:13:40;;;;;;;55.77;34.10;;;4.60;99.90;;;;;;2610614;54;20413;-77
2022/03/26 05:16:07;;;;;;;59.70;33.57;;;4.60;99.90;;;;;;2611139;54;20420;-75
2022/03/26 05:18:35;;;;;;;60.53;36.53;;;4.70;99.90;;;;;;2611732;54;20143;-77
2022/03/26 05:21:01;;;;;;;59.73;36.50;;;4.60;99.90;;;;;;2612341;54;20486;-76
2022/03/26 05:23:27;;;;;;;56.03;34.23;;;4.70;99.90;;;;;;2611162;39;20450;-75
2022/03/26 05:25:53;;;;;;;58.10;35.60;;;4.80;99.90;;;;;;2611696;47;20164;-76
2022/03/26 05:28:19;;;;;;;66.40;37.17;;;4.80;99.90;;;;;;2612564;54;20440;-78
2022/03/26 05:30:51;;;;;;;55.20;33.50;;;4.70;99.90;;;;;;2610726;54;20462;-76
2022/03/26 05:33:18;;;;;;;55.23;32.77;;;4.70;99.90;;;;;;2613039;54;20499;-77
2022/03/26 05:35:44;;;;;;;51.30;33.33;;;4.70;99.90;;;;;;2613102;39;20822;-77
2022/03/26 05:38:10;;;;;;;54.77;34.50;;;4.50;99.90;;;;;;2611631;54;20399;-76
2022/03/26 05:40:36;;;;;;;59.73;32.97;;;4.60;99.90;;;;;;2612592;54;20434;-75
2022/03/26 05:43:02;;;;;;;58.40;35.33;;;4.60;99.90;;;;;;2613472;39;20780;-77
2022/03/26 05:45:29;;;;;;;56.23;33.60;;;4.70;99.90;;;;;;2612135;54;20412;-79
2022/03/26 05:48:02;;;;;;;56.50;34.77;;;4.70;99.90;;;;;;2612449;54;20508;-76
2022/03/26 05:50:29;;;;;;;63.10;34.67;;;4.90;99.90;;;;;;2612302;54;20496;-75
2022/03/26 05:52:55;;;;;;;58.57;37.43;;;4.90;99.90;;;;;;2611736;46;20429;-74
2022/03/26 05:55:21;;;;;;;65.50;41.33;;;5.00;99.90;;;;;;2612748;54;20416;-75
2022/03/26 05:57:48;;;;;;;73.63;38.80;;;5.00;99.90;;;;;;2612165;54;20502;-77
2022/03/26 06:00:14;;;;;;;59.37;38.50;;;5.20;99.90;;;;;;2610042;54;20202;-75
2022/03/26 06:02:42;;;;;;;67.10;37.77;;;5.30;99.90;;;;;;2610873;54;20464;-75
2022/03/26 06:05:08;;;;;;;68.97;39.70;;;5.30;99.90;;;;;;2610507;47;20428;-75
2022/03/26 06:07:34;;;;;;;71.73;39.50;;;5.20;99.90;;;;;;2609916;54;20408;-75
2022/03/26 06:10:01;;;;;;;69.80;38.13;;;5.20;99.90;;;;;;2609642;54;21405;-74
2022/03/26 06:12:26;;;;;;;61.97;35.70;;;5.30;99.90;;;;;;2610265;54;20423;-75
2022/03/26 06:14:52;;;;;;;57.87;38.03;;;5.50;99.90;;;;;;2611607;47;20480;-76
2022/03/26 06:17:20;;;;;;;57.27;39.20;;;5.60;99.90;;;;;;2612368;54;20162;-75
2022/03/26 06:19:45;;;;;;;68.33;37.90;;;5.70;99.90;;;;;;2612606;39;20630;-76
2022/03/26 06:22:11;;;;;;;56.53;35.57;;;5.90;99.90;;;;;;2610030;54;20423;-75
2022/03/26 06:24:37;;;;;;;59.03;36.70;;;5.90;99.90;;;;;;2612580;54;22062;-74
2022/03/26 06:27:04;;;;;;;51.80;34.97;;;6.10;99.90;;;;;;2611888;54;20155;-75
2022/03/26 06:29:30;;;;;;;58.13;36.20;;;6.40;99.90;;;;;;2611153;54;20160;-76
2022/03/26 06:31:56;;;;;;;52.13;34.40;;;6.80;99.90;;;;;;2611360;54;20516;-76
2022/03/26 06:34:23;;;;;;;58.27;35.03;;;7.30;99.90;;;;;;2613298;39;20803;-76
2022/03/26 06:36:50;;;;;;;47.90;33.83;;;7.80;99.90;;;;;;2611050;54;20163;-75
2022/03/26 06:39:15;;;;;;;52.00;33.57;;;8.40;99.90;;;;;;2610082;47;20435;-75
2022/03/26 06:41:42;;;;;;;55.13;34.93;;;8.80;99.80;;;;;;2611184;54;20456;-75
2022/03/26 06:44:09;;;;;;;54.57;35.77;;;9.30;92.30;;;;;;2610933;54;20490;-76
2022/03/26 06:46:36;;;;;;;54.70;33.43;;;9.70;78.90;;;;;;2611440;54;20404;-76
2022/03/26 06:49:02;;;;;;;67.63;33.20;;;10.10;67.90;;;;;;2611615;47;20424;-76
2022/03/26 06:51:29;;;;;;;46.47;32.20;;;10.40;59.90;;;;;;2611792;54;21481;-75
2022/03/26 06:53:56;;;;;;;48.87;33.83;;;10.60;56.90;;;;;;2610792;54;20435;-76
2022/03/26 06:56:22;;;;;;;55.87;36.40;;;10.90;52.10;;;;;;2612472;47;20459;-75
2022/03/26 06:58:47;;;;;;;53.67;32.83;;;11.10;48.80;;;;;;2612342;54;20535;-75
2022/03/26 07:01:13;;;;;;;47.17;32.63;;;11.40;46.60;;;;;;2610654;39;20566;-75
2022/03/26 07:03:39;;;;;;;54.10;34.27;;;11.70;44.10;;;;;;2611252;47;20169;-76
2022/03/26 07:06:05;;;;;;;51.37;35.30;;;11.80;41.00;;;;;;2610204;47;20162;-75
2022/03/26 07:08:31;;;;;;;51.80;35.67;;;12.10;37.20;;;;;;2610664;54;20400;-77
2022/03/26 07:10:57;;;;;;;55.83;37.93;;;12.30;30.70;;;;;;2610045;47;20466;-77
2022/03/26 07:13:23;;;;;;;53.87;37.50;;;12.10;29.30;;;;;;2610115;39;21652;-77
2022/03/26 07:15:48;;;;;;;51.70;36.97;;;12.40;28.90;;;;;;2611275;39;20905;-76
2022/03/26 07:18:15;;;;;;;52.17;36.00;;;12.70;28.30;;;;;;2610567;54;20208;-75
2022/03/26 07:20:42;;;;;;;57.60;38.40;;;12.90;26.90;;;;;;2609017;47;20175;-76
2022/03/26 07:23:09;;;;;;;55.57;37.80;;;13.10;24.30;;;;;;2611070;54;20993;-77
2022/03/26 07:25:35;;;;;;;50.67;36.60;;;13.10;23.60;;;;;;2610033;46;20451;-74
2022/03/26 07:28:01;;;;;;;49.47;36.37;;;13.40;21.40;;;;;;2610087;54;20503;-75
2022/03/26 07:30:28;;;;;;;56.60;37.23;;;13.50;19.70;;;;;;2610833;54;20424;-76
2022/03/26 07:32:54;;;;;;;46.97;35.10;;;13.90;18.90;;;;;;2610228;54;20416;-76
2022/03/26 07:35:20;;;;;;;49.97;36.77;;;14.10;17.10;;;;;;2610590;54;20423;-75
2022/03/26 07:37:46;;;;;;;49.20;34.87;;;14.30;15.60;;;;;;2611656;39;20741;-76
2022/03/26 07:40:13;;;;;;;49.90;33.47;;;15.00;13.70;;;;;;2611257;47;20171;-75
2022/03/26 07:42:39;;;;;;;45.50;34.13;;;15.30;9.90;;;;;;2611152;54;20152;-75
2022/03/26 07:45:06;;;;;;;48.60;35.70;;;15.50;8.00;;;;;;2609993;47;20439;-75
2022/03/26 07:47:37;;;;;;;44.17;34.00;;;15.20;8.10;;;;;;2611452;54;20442;-77
2022/03/26 07:50:05;;;;;;;47.70;35.00;;;15.30;6.00;;;;;;2611219;47;20412;-73
2022/03/26 07:52:31;;;;;;;43.20;34.37;;;15.00;7.30;;;;;;2611098;47;20431;-76
2022/03/26 07:54:58;;;;;;;50.57;36.63;;;15.40;5.40;;;;;;2613486;39;20881;-77
2022/03/26 07:57:24;;;;;;;44.23;36.87;;;15.30;7.20;;;;;;2612291;46;20499;-76
2022/03/26 07:59:50;;;;;;;45.50;36.60;;;15.70;4.10;;;;;;2611489;46;21049;-77
2022/03/26 08:02:16;;;;;;;49.77;36.70;;;15.80;4.50;;;;;;2611055;47;20266;-76
2022/03/26 08:04:42;;;;;;;49.83;37.07;;;15.60;3.50;;;;;;2611282;39;20585;-76
2022/03/26 08:07:09;;;;;;;52.77;38.23;;;15.40;3.90;;;;;;2612231;54;20158;-75
2022/03/26 08:09:35;;;;;;;46.60;37.70;;;15.50;4.70;;;;;;2611730;39;20772;-76
2022/03/26 08:12:00;;;;;;;49.07;37.60;;;16.00;2.10;;;;;;2611730;39;20599;-76
2022/03/26 08:14:28;;;;;;;54.10;40.80;;;16.40;1.30;;;;;;2611271;54;20145;-78
2022/03/26 08:16:53;;;;;;;48.20;38.17;;;16.80;1.00;;;;;;2612374;46;20185;-75
2022/03/26 08:19:20;;;;;;;45.47;37.57;;;17.10;1.00;;;;;;2612193;54;20412;-76
2022/03/26 08:21:46;;;;;;;53.37;36.77;;;17.10;1.00;;;;;;2612667;54;20158;-76
2022/03/26 08:24:12;;;;;;;57.43;38.07;;;17.10;1.00;;;;;;2612898;54;21012;-75
2022/03/26 08:26:39;;;;;;;48.73;34.87;;;17.00;1.00;;;;;;2611693;54;20192;-80
2022/03/26 08:29:05;;;;;;;42.73;36.70;;;17.20;1.00;;;;;;2611687;54;20433;-75
2022/03/26 08:31:31;;;;;;;58.47;38.17;;;17.30;1.00;;;;;;2611293;54;20427;-76
2022/03/26 08:33:58;;;;;;;43.13;36.77;;;17.50;1.00;;;;;;2611306;39;20574;-76
2022/03/26 08:36:24;;;;;;;57.33;37.53;;;17.90;1.00;;;;;;2611710;47;20453;-76
2022/03/26 08:38:51;;;;;;;41.40;33.77;;;17.90;1.00;;;;;;2613685;54;20418;-76
2022/03/26 08:41:19;;;;;;;47.20;36.10;;;17.70;1.00;;;;;;2610586;54;20411;-76
2022/03/26 08:43:46;;;;;;;44.07;35.83;;;17.70;1.00;;;;;;2610900;51;20541;-76
2022/03/26 08:46:12;;;;;;;42.97;33.87;;;18.10;1.00;;;;;;2612209;54;20503;-76
2022/03/26 08:48:39;;;;;;;46.00;36.57;;;18.10;1.00;;;;;;2612008;47;20449;-77
2022/03/26 08:51:05;;;;;;;41.90;34.40;;;18.60;1.00;;;;;;2612009;54;20419;-75
2022/03/26 08:53:31;;;;;;;48.80;39.00;;;18.70;1.00;;;;;;2612495;39;20758;-77
2022/03/26 08:55:58;;;;;;;49.53;38.07;;;18.90;1.00;;;;;;2612614;54;20963;-76
2022/03/26 08:58:24;;;;;;;45.93;34.60;;;18.70;1.00;;;;;;2611296;54;20936;-76
2022/03/26 09:00:52;;;;;;;46.73;34.50;;;19.10;1.00;;;;;;2612316;39;20235;-77
2022/03/26 09:03:20;;;;;;;43.37;35.77;;;18.80;1.00;;;;;;2611948;54;20480;-77
2022/03/26 09:05:52;;;;;;;36.73;31.40;;;18.80;1.00;;;;;;2612542;47;20438;-76
2022/03/26 09:08:18;;;;;;;44.23;32.23;;;19.00;1.00;;;;;;2611771;47;20442;-77
2022/03/26 09:10:45;;;;;;;39.90;32.17;;;19.20;1.00;;;;;;2612590;39;21022;-76
2022/03/26 09:13:11;;;;;;;37.93;32.30;;;19.30;1.00;;;;;;2611812;54;21018;-76
2022/03/26 09:15:38;;;;;;;48.40;32.80;;;19.40;1.00;;;;;;2612077;54;20965;-75
2022/03/26 09:18:04;;;;;;;38.93;30.30;;;19.60;1.00;;;;;;2612105;54;20474;-77
2022/03/26 09:20:30;;;;;;;35.37;30.90;;;19.50;1.00;;;;;;2612778;46;20453;-75
2022/03/26 09:22:56;;;;;;;40.30;32.30;;;19.70;1.00;;;;;;2613122;39;20830;-77
2022/03/26 09:25:22;;;;;;;38.93;31.43;;;19.70;1.00;;;;;;2612025;54;20175;-76
2022/03/26 09:27:49;;;;;;;36.70;30.30;;;20.10;1.00;;;;;;2611140;46;20438;-76
2022/03/26 09:30:16;;;;;;;41.90;30.00;;;20.40;1.00;;;;;;2611559;54;20423;-78
2022/03/26 09:32:44;;;;;;;40.10;30.80;;;20.10;1.00;;;;;;2612037;31;20862;-76
2022/03/26 09:35:12;;;;;;;41.60;33.77;;;20.30;1.00;;;;;;2611769;54;20522;-76
2022/03/26 09:37:38;;;;;;;33.10;29.57;;;20.30;1.00;;;;;;2611196;54;20507;-77
2022/03/26 09:40:05;;;;;;;33.67;29.73;;;20.70;1.00;;;;;;2612484;54;20419;-77
2022/03/26 09:42:32;;;;;;;34.73;30.67;;;21.00;1.00;;;;;;2613687;54;20458;-76
2022/03/26 09:44:59;;;;;;;33.90;29.30;;;20.70;1.00;;;;;;2612022;54;20424;-76
2022/03/26 09:47:25;;;;;;;34.77;27.13;;;20.90;1.00;;;;;;2610610;54;20417;-74
2022/03/26 09:49:51;;;;;;;37.97;28.07;;;20.80;1.00;;;;;;2611483;54;20450;-78
2022/03/26 09:52:17;;;;;;;37.73;28.70;;;20.80;1.00;;;;;;2611367;39;20881;-75
2022/03/26 09:54:43;;;;;;;28.87;25.80;;;20.70;1.00;;;;;;2613384;39;20842;-76
2022/03/26 09:57:09;;;;;;;39.33;27.17;;;20.40;1.00;;;;;;2611239;54;20162;-76
2022/03/26 09:59:36;;;;;;;39.27;26.63;;;20.60;1.00;;;;;;2612987;54;20430;-76
2022/03/26 10:02:02;;;;;;;30.43;25.67;;;20.70;1.00;;;;;;2613525;54;20411;-76
2022/03/26 10:04:40;;;;;;;36.70;29.50;;;20.60;1.00;;;;;;2611048;54;20524;-77
2022/03/26 10:07:06;;;;;;;33.90;27.87;;;20.50;1.00;;;;;;2612954;54;20462;-77
2022/03/26 10:09:41;;;;;;;36.17;29.73;;;20.40;1.00;;;;;;2612110;54;20415;-76
2022/03/26 10:12:19;;;;;;;28.37;25.33;;;20.80;1.00;;;;;;2612340;54;21013;-76
2022/03/26 10:14:47;;;;;;;32.37;23.70;;;21.20;1.00;;;;;;2613802;39;20921;-76
2022/03/26 10:17:19;;;;;;;24.10;20.10;;;21.30;1.00;;;;;;2613547;54;20403;-75
2022/03/26 10:19:51;;;;;;;20.90;17.30;;;21.20;1.00;;;;;;2613583;54;20425;-76
2022/03/26 10:22:33;;;;;;;18.53;16.63;;;21.30;1.00;;;;;;2611038;54;20427;-75
2022/03/26 10:25:04;;;;;;;18.37;16.40;;;21.60;1.00;;;;;;2610887;47;20431;-76
2022/03/26 10:27:50;;;;;;;19.43;17.37;;;21.00;1.00;;;;;;2613188;54;20420;-76
2022/03/26 10:32:38;;;;;;;21.40;19.23;;;21.00;1.00;;;;;;2611445;51;20482;-75
2022/03/26 10:33:18;;;;;;;20.97;18.93;;;21.40;1.00;;;;;;2612136;47;20423;-77
2022/03/26 10:35:53;;;;;;;23.80;19.43;;;21.40;1.00;;;;;;2610721;54;20418;-77
2022/03/26 10:38:19;;;;;;;19.33;17.33;;;21.50;1.00;;;;;;2611642;54;20955;-76
2022/03/26 10:40:45;;;;;;;19.87;17.80;;;21.70;1.00;;;;;;2610439;54;20535;-76
2022/03/26 10:43:14;;;;;;;23.53;19.57;;;21.60;1.00;;;;;;2611457;39;20594;-76
2022/03/26 10:45:50;;;;;;;26.57;18.80;;;21.70;1.00;;;;;;2609790;54;20387;-76
2022/03/26 10:48:23;;;;;;;20.80;18.57;;;21.70;1.00;;;;;;2610954;54;20462;-76
2022/03/26 10:51:01;;;;;;;20.20;18.10;;;21.50;1.00;;;;;;2611253;54;20407;-76
2022/03/26 10:53:40;;;;;;;19.37;17.47;;;21.50;1.00;;;;;;2627789;36;20471;-76
2022/03/26 10:56:11;;;;;;;17.80;16.10;;;21.90;1.00;;;;;;2612235;39;20946;-76
2022/03/26 10:58:38;;;;;;;18.50;16.37;;;22.00;1.00;;;;;;2613148;39;21171;-76
2022/03/26 11:01:05;;;;;;;19.10;16.47;;;21.80;1.00;;;;;;2611940;54;20425;-76
2022/03/26 11:03:32;;;;;;;20.70;16.10;;;21.70;1.00;;;;;;2609838;47;20426;-75
2022/03/26 11:05:58;;;;;;;17.90;16.33;;;21.80;1.00;;;;;;2610389;47;20876;-76
2022/03/26 11:08:29;;;;;;;18.30;16.50;;;22.00;1.00;;;;;;2612635;54;20424;-75
2022/03/26 11:10:55;;;;;;;15.83;14.40;;;22.20;1.00;;;;;;2609729;54;20440;-77
2022/03/26 11:13:25;;;;;;;19.30;15.83;;;21.70;1.00;;;;;;2611090;47;21271;-78
2022/03/26 11:16:02;;;;;;;13.50;12.20;;;21.80;1.00;;;;;;2610448;54;20954;-76
2022/03/26 11:19:07;;;;;;;27.33;14.60;;;22.00;1.00;;;;;;2610183;54;20411;-76
2022/03/26 11:22:01;;;;;;;14.67;13.33;;;21.80;1.00;;;;;;2628887;36;20423;-75
2022/03/26 11:25:00;;;;;;;16.17;14.63;;;22.10;1.00;;;;;;2612414;47;20527;-74
2022/03/26 11:27:38;;;;;;;16.20;14.73;;;22.30;1.00;;;;;;2611240;47;20439;-75
2022/03/26 11:30:22;;;;;;;15.80;14.37;;;22.40;1.00;;;;;;2608463;46;20498;-77
2022/03/26 11:32:51;;;;;;;15.07;13.50;;;22.50;1.00;;;;;;2610019;47;20429;-76
2022/03/26 11:35:18;;;;;;;17.27;14.73;;;22.80;1.00;;;;;;2628288;36;20482;-75
2022/03/26 11:37:56;;;;;;;15.33;13.90;;;23.10;1.00;;;;;;2610175;54;20411;-76
2022/03/26 11:40:48;;;;;;;14.20;13.03;;;23.30;1.00;;;;;;2612259;54;20959;-76
2022/03/26 11:43:38;;;;;;;232.07;62.80;;;23.20;1.00;;;;;;2610063;54;20430;-75
2022/03/26 11:51:37;;;;;;;14.33;12.83;;;23.40;1.00;;;;;;2610417;47;20527;-78
2022/03/26 11:54:12;;;;;;;112.17;40.13;;;23.30;1.00;;;;;;2609996;54;20423;-76
2022/03/26 11:56:39;;;;;;;15.53;13.50;;;23.40;1.00;;;;;;2610812;54;20422;-78
2022/03/26 11:59:25;;;;;;;15.03;13.63;;;23.40;1.00;;;;;;2609804;54;20943;-75
2022/03/26 12:01:51;;;;;;;14.93;13.67;;;23.00;1.00;;;;;;2612279;47;20454;-79
2022/03/26 12:04:26;;;;;;;16.03;14.30;;;23.10;1.00;;;;;;2609000;46;20427;-76
2022/03/26 12:06:57;;;;;;;13.97;12.77;;;22.70;1.00;;;;;;2609823;54;21025;-77
2022/03/26 12:09:33;;;;;;;13.43;12.23;;;22.40;1.00;;;;;;2611025;39;20684;-77
2022/03/26 12:12:10;;;;;;;12.37;11.47;;;22.40;1.00;;;;;;2610389;39;20517;-77
2022/03/26 12:15:08;;;;;;;14.83;13.70;;;22.50;1.00;;;;;;2610565;54;20423;-75
2022/03/26 12:17:44;;;;;;;13.90;12.70;;;22.50;1.00;;;;;;2608254;54;20424;-76
2022/03/26 12:20:34;;;;;;;13.17;11.97;;;22.60;1.00;;;;;;2607836;54;20415;-76
2022/03/26 12:23:14;;;;;;;14.50;13.40;;;22.70;1.00;;;;;;2611095;54;20403;-77
2022/03/26 12:25:50;;;;;;;15.53;14.10;;;22.30;1.00;;;;;;2610331;54;20465;-76
2022/03/26 12:28:30;;;;;;;13.83;12.60;;;22.20;1.00;;;;;;2610693;47;20431;-76
2022/03/26 12:30:58;;;;;;;15.00;13.70;;;22.30;1.00;;;;;;2611372;39;20788;-77
2022/03/26 12:33:26;;;;;;;14.50;13.30;;;21.90;1.00;;;;;;2612009;39;20819;-76
2022/03/26 12:35:54;;;;;;;14.33;13.03;;;22.00;1.00;;;;;;2610726;54;20407;-77
2022/03/26 12:38:22;;;;;;;16.10;14.50;;;22.60;1.00;;;;;;2610283;39;20844;-75
2022/03/26 12:40:54;;;;;;;15.40;13.80;;;22.70;1.00;;;;;;2611536;47;20412;-76
2022/03/26 12:43:21;;;;;;;14.97;13.60;;;22.60;1.00;;;;;;2611589;54;20510;-75
2022/03/26 12:45:48;;;;;;;16.40;14.90;;;22.40;1.00;;;;;;2611507;54;20532;-76
2022/03/26 12:48:14;;;;;;;17.53;14.17;;;22.20;1.00;;;;;;2610217;54;20438;-76